Time;durP1;ratioP1;P1;durP2;ratioP2;P2;SDS_P1;SDS_P2;PMS_P1;PMS_P2;Temp;Humidity;BMP_temperature;BMP_pressure;BME280_temperature;BME280_humidity;BME280_pressure;Samples;Min_cycle;Max_cycle;Signal;HPM_P1;HPM_P2
2023/05/08 00:01:54;;;;;;;42.80;20.38;;;13.70;99.90;;;;;;5024684;28;20034;-84
2023/05/08 00:04:20;;;;;;;45.70;20.10;;;13.70;99.90;;;;;;5040022;28;20056;-82
2023/05/08 00:06:47;;;;;;;48.60;19.85;;;13.70;99.90;;;;;;5025184;28;20044;-84
2023/05/08 00:09:13;;;;;;;50.35;20.70;;;13.70;99.90;;;;;;5024290;28;20374;-82
2023/05/08 00:11:39;;;;;;;46.67;19.92;;;13.70;99.90;;;;;;5023925;28;20036;-82
2023/05/08 00:14:05;;;;;;;33.58;16.65;;;13.70;99.90;;;;;;5021174;28;20613;-80
2023/05/08 00:16:31;;;;;;;37.15;17.95;;;13.70;99.90;;;;;;5021899;28;20482;-82
2023/05/08 00:18:59;;;;;;;37.75;17.50;;;13.60;99.90;;;;;;5039231;28;20038;-82
2023/05/08 00:21:25;;;;;;;46.15;18.63;;;13.60;99.90;;;;;;5037656;28;20045;-81
2023/05/08 00:23:51;;;;;;;47.22;19.25;;;13.60;99.90;;;;;;5023453;28;20099;-80
2023/05/08 00:26:18;;;;;;;39.20;18.27;;;13.60;99.90;;;;;;5030712;28;20458;-81
2023/05/08 00:28:44;;;;;;;39.75;18.98;;;13.60;99.90;;;;;;5026463;28;20033;-82
2023/05/08 00:31:10;;;;;;;34.95;17.27;;;13.60;99.90;;;;;;5021915;28;20370;-80
2023/05/08 00:33:36;;;;;;;40.40;18.90;;;13.60;99.90;;;;;;5024709;28;20036;-80
2023/05/08 00:36:04;;;;;;;46.67;19.13;;;13.50;99.90;;;;;;5019328;28;20045;-80
2023/05/08 00:38:31;;;;;;;39.72;17.55;;;13.50;99.90;;;;;;5025576;28;20382;-79
2023/05/08 00:40:57;;;;;;;42.08;16.33;;;13.50;99.90;;;;;;5030426;28;20026;-80
2023/05/08 00:43:26;;;;;;;43.58;17.77;;;13.60;99.90;;;;;;5022848;28;20045;-80
2023/05/08 00:45:58;;;;;;;33.72;16.67;;;13.60;99.90;;;;;;5023198;28;20382;-80
2023/05/08 00:48:28;;;;;;;43.03;17.23;;;13.60;99.90;;;;;;5023949;28;20025;-80
2023/05/08 00:50:55;;;;;;;43.13;19.35;;;13.70;99.90;;;;;;5020231;28;20366;-79
2023/05/08 00:53:24;;;;;;;50.35;18.15;;;13.70;99.90;;;;;;5023399;28;20393;-79
2023/05/08 00:55:51;;;;;;;54.03;18.90;;;13.70;99.90;;;;;;5028478;28;20048;-80
2023/05/08 00:58:20;;;;;;;32.88;15.52;;;13.70;99.90;;;;;;5029852;28;20022;-79
2023/05/08 01:00:49;;;;;;;46.45;16.92;;;13.70;99.90;;;;;;5022478;28;20049;-83
2023/05/08 01:03:15;;;;;;;47.15;17.83;;;13.70;99.90;;;;;;5027801;28;20486;-79
2023/05/08 01:05:42;;;;;;;37.22;17.15;;;13.70;99.90;;;;;;5025968;28;20394;-80
2023/05/08 01:08:09;;;;;;;46.13;17.15;;;13.70;99.90;;;;;;5024605;28;20022;-81
2023/05/08 01:11:12;;;;;;;25.77;14.18;;;13.70;99.90;;;;;;5024794;28;20041;-79
2023/05/08 01:13:53;;;;;;;33.10;15.10;;;13.70;99.90;;;;;;5024274;28;20033;-80
2023/05/08 01:16:41;;;;;;;31.98;15.82;;;13.70;99.90;;;;;;5021841;28;20033;-80
2023/05/08 01:19:44;;;;;;;33.42;15.68;;;13.70;99.90;;;;;;5019513;28;20105;-79
2023/05/08 01:22:39;;;;;;;54.88;18.20;;;13.70;99.90;;;;;;5022380;28;20600;-80
2023/05/08 01:25:24;;;;;;;34.78;15.23;;;13.70;99.90;;;;;;5012429;28;20045;-80
2023/05/08 01:28:12;;;;;;;34.25;15.95;;;13.70;99.90;;;;;;5024575;28;20041;-82
2023/05/08 01:31:17;;;;;;;32.28;16.00;;;13.70;99.90;;;;;;5021571;28;20034;-79
2023/05/08 01:33:58;;;;;;;27.42;14.70;;;13.60;99.90;;;;;;5018797;28;20047;-80
2023/05/08 01:36:40;;;;;;;36.58;16.42;;;13.60;99.90;;;;;;5026392;28;20045;-79
2023/05/08 01:39:18;;;;;;;36.00;16.58;;;13.60;99.90;;;;;;5029615;28;20366;-79
2023/05/08 01:42:01;;;;;;;29.92;15.00;;;13.60;99.90;;;;;;5044584;28;20056;-80
2023/05/08 01:44:36;;;;;;;37.67;17.20;;;13.60;99.90;;;;;;5029660;28;20033;-79
2023/05/08 01:47:06;;;;;;;26.02;14.52;;;13.60;99.90;;;;;;5026176;28;20033;-80
2023/05/08 01:49:44;;;;;;;30.53;15.83;;;13.60;99.90;;;;;;5031817;28;20459;-80
2023/05/08 01:52:33;;;;;;;26.70;15.82;;;13.60;99.90;;;;;;5026030;28;20285;-80
2023/05/08 01:55:11;;;;;;;30.08;15.52;;;13.60;99.90;;;;;;5022747;28;20046;-80
2023/05/08 01:57:42;;;;;;;26.40;14.70;;;13.60;99.90;;;;;;5027780;28;20056;-79
2023/05/08 02:00:09;;;;;;;31.58;15.45;;;13.60;99.90;;;;;;5026825;28;20048;-79
2023/05/08 02:02:39;;;;;;;25.65;14.60;;;13.60;99.90;;;;;;5028630;28;20447;-79
2023/05/08 02:05:08;;;;;;;24.48;14.00;;;13.60;99.90;;;;;;5028774;28;20033;-80
2023/05/08 02:07:37;;;;;;;38.17;16.33;;;13.60;99.90;;;;;;5028905;28;20340;-79
2023/05/08 02:10:05;;;;;;;28.73;14.63;;;13.60;99.90;;;;;;5028180;28;20049;-79
2023/05/08 02:12:32;;;;;;;22.85;13.63;;;13.60;99.90;;;;;;5026384;28;20463;-79
2023/05/08 02:15:00;;;;;;;26.20;14.48;;;13.60;99.90;;;;;;5027071;28;20466;-80
2023/05/08 02:17:29;;;;;;;24.73;13.77;;;13.60;99.90;;;;;;5015373;28;20057;-80
2023/05/08 02:19:57;;;;;;;21.10;13.20;;;13.60;99.90;;;;;;5026642;28;20033;-80
2023/05/08 02:22:25;;;;;;;20.40;12.30;;;13.60;99.90;;;;;;5027623;28;20045;-79
2023/05/08 02:24:54;;;;;;;25.98;13.85;;;13.70;99.90;;;;;;5026159;28;20037;-81
2023/05/08 02:27:24;;;;;;;28.38;14.73;;;13.60;99.90;;;;;;5028416;28;20069;-79
2023/05/08 02:29:51;;;;;;;31.65;15.85;;;13.70;99.90;;;;;;5029801;28;20491;-79
2023/05/08 02:32:24;;;;;;;37.42;17.50;;;13.70;99.90;;;;;;5027954;28;20050;-79
2023/05/08 02:34:53;;;;;;;41.80;17.33;;;13.60;99.90;;;;;;5028993;28;20032;-80
2023/05/08 02:37:21;;;;;;;29.38;15.90;;;13.60;99.90;;;;;;5028477;28;20040;-79
2023/05/08 02:39:50;;;;;;;37.97;16.48;;;13.60;99.90;;;;;;5043389;28;20041;-79
2023/05/08 02:42:16;;;;;;;28.08;14.60;;;13.60;99.90;;;;;;5040907;28;20470;-79
2023/05/08 02:44:43;;;;;;;35.70;16.70;;;13.60;99.90;;;;;;5029414;28;20045;-79
2023/05/08 02:47:28;;;;;;;30.73;16.50;;;13.50;99.90;;;;;;5026244;28;20381;-79
2023/05/08 02:50:16;;;;;;;45.30;17.42;;;13.60;99.90;;;;;;5025904;28;20046;-81
2023/05/08 02:52:53;;;;;;;51.33;19.63;;;13.60;99.90;;;;;;5042576;28;20493;-80
2023/05/08 02:55:33;;;;;;;25.77;15.75;;;13.60;99.90;;;;;;5043385;28;20049;-79
2023/05/08 02:58:05;;;;;;;33.05;17.35;;;13.70;99.90;;;;;;5017912;28;20042;-79
2023/05/08 03:00:36;;;;;;;49.08;19.00;;;13.60;99.90;;;;;;5021220;28;20037;-79
2023/05/08 03:03:12;;;;;;;30.48;15.88;;;13.60;99.90;;;;;;5028069;28;20034;-79
2023/05/08 03:05:46;;;;;;;31.35;16.80;;;13.60;99.90;;;;;;5045176;28;20041;-79
2023/05/08 03:08:29;;;;;;;32.85;16.42;;;13.60;99.90;;;;;;5029227;28;20818;-79
2023/05/08 03:11:00;;;;;;;30.73;16.52;;;13.60;99.90;;;;;;5027924;28;20045;-82
2023/05/08 03:13:30;;;;;;;37.88;18.00;;;13.60;99.90;;;;;;5023191;28;20374;-82
2023/05/08 03:15:59;;;;;;;34.47;20.30;;;13.70;99.90;;;;;;5022021;28;20057;-81
2023/05/08 03:18:40;;;;;;;35.13;19.05;;;13.60;99.90;;;;;;5023642;28;20045;-79
2023/05/08 03:21:06;;;;;;;;;;;13.60;99.90;;;;;;5024169;28;20466;-79
2023/05/08 03:23:35;;;;;;;33.40;16.98;;;13.60;99.90;;;;;;5025254;28;19909;-79
2023/05/08 03:26:03;;;;;;;32.47;18.88;;;13.60;99.90;;;;;;5027896;28;20049;-79
2023/05/08 03:28:30;;;;;;;45.20;18.40;;;13.60;99.90;;;;;;5024991;28;20044;-79
2023/05/08 03:30:59;;;;;;;29.98;18.00;;;13.60;99.90;;;;;;5024324;28;20046;-82
2023/05/08 03:33:27;;;;;;;33.47;19.25;;;13.60;99.90;;;;;;5016969;28;20021;-79
2023/05/08 03:35:54;;;;;;;33.33;17.95;;;13.70;99.90;;;;;;5022754;28;20050;-80
2023/05/08 03:38:21;;;;;;;32.35;18.67;;;13.60;99.90;;;;;;5025667;28;20045;-79
2023/05/08 03:40:48;;;;;;;38.10;20.05;;;13.70;99.90;;;;;;5026443;28;20044;-79
2023/05/08 03:43:16;;;;;;;62.92;23.02;;;13.70;99.90;;;;;;5026559;28;20049;-79
2023/05/08 03:45:44;;;;;;;52.17;21.85;;;13.70;99.90;;;;;;5018576;28;20478;-79
2023/05/08 03:48:13;;;;;;;44.85;22.00;;;13.80;99.90;;;;;;5027424;28;20025;-79
2023/05/08 03:50:41;;;;;;;54.03;22.20;;;13.70;99.90;;;;;;5042430;28;20375;-79
2023/05/08 03:53:09;;;;;;;37.25;19.40;;;13.80;99.90;;;;;;5037384;28;20037;-78
2023/05/08 03:55:35;;;;;;;38.90;21.38;;;13.80;99.90;;;;;;5026081;28;20493;-76
2023/05/08 03:58:52;;;;;;;68.82;24.17;;;13.80;99.90;;;;;;5040313;28;20041;-76
2023/05/08 04:01:40;;;;;;;46.28;21.38;;;13.80;99.90;;;;;;5022642;28;20038;-76
2023/05/08 04:04:16;;;;;;;42.08;21.13;;;13.80;99.90;;;;;;5040450;28;20048;-76
2023/05/08 04:06:54;;;;;;;52.13;23.90;;;13.80;99.90;;;;;;5024267;28;20028;-76
2023/05/08 04:09:47;;;;;;;65.05;25.42;;;13.90;99.90;;;;;;5026775;28;20041;-76
2023/05/08 04:12:30;;;;;;;38.80;20.67;;;13.80;99.90;;;;;;5024274;28;20056;-76
2023/05/08 04:15:04;;;;;;;42.13;20.58;;;13.80;99.90;;;;;;5024980;28;20053;-79
2023/05/08 04:17:41;;;;;;;59.80;22.55;;;13.80;99.90;;;;;;5026982;28;20045;-76
2023/05/08 04:20:12;;;;;;;45.97;21.27;;;13.80;99.90;;;;;;5040697;28;20037;-73
2023/05/08 04:22:39;;;;;;;;;;;13.80;99.90;;;;;;5022862;28;20056;-76
2023/05/08 04:25:07;;;;;;;43.40;23.10;;;13.80;99.90;;;;;;5023762;28;19905;-77
2023/05/08 04:27:34;;;;;;;44.25;23.10;;;13.80;99.90;;;;;;5025045;28;20034;-76
2023/05/08 04:30:04;;;;;;;54.47;25.77;;;13.70;99.90;;;;;;5026447;28;20057;-77
2023/05/08 04:32:33;;;;;;;;;;;13.70;99.90;;;;;;5024239;28;20045;-78
2023/05/08 04:35:00;;;;;;;46.10;24.27;;;13.80;99.90;;;;;;5021519;28;19917;-82
2023/05/08 04:37:28;;;;;;;51.10;23.90;;;13.80;99.90;;;;;;5030113;28;20045;-77
2023/05/08 04:39:57;;;;;;;65.50;26.17;;;13.80;99.90;;;;;;5023986;28;20048;-81
2023/05/08 04:42:27;;;;;;;55.45;25.25;;;13.90;99.90;;;;;;5039308;28;20050;-77
2023/05/08 04:44:56;;;;;;;59.00;25.52;;;13.80;99.90;;;;;;5028187;28;20041;-81
2023/05/08 04:47:22;;;;;;;38.88;21.45;;;13.80;99.90;;;;;;5027257;28;20038;-76
2023/05/08 04:49:50;;;;;;;47.40;23.92;;;13.80;99.90;;;;;;5028477;28;20223;-77
2023/05/08 04:52:16;;;;;;;54.80;23.15;;;13.80;99.90;;;;;;5045353;28;20038;-76
2023/05/08 04:54:42;;;;;;;39.05;21.80;;;13.80;99.90;;;;;;5025164;28;20042;-77
2023/05/08 04:57:09;;;;;;;43.33;22.95;;;13.80;99.90;;;;;;5027153;28;20041;-77
2023/05/08 04:59:36;;;;;;;40.30;21.88;;;13.70;99.90;;;;;;5021992;28;20034;-77
2023/05/08 05:02:04;;;;;;;49.17;23.77;;;13.80;99.90;;;;;;5017713;28;20378;-78
2023/05/08 05:04:31;;;;;;;58.83;25.15;;;13.80;99.90;;;;;;5028327;28;20068;-77
2023/05/08 05:06:57;;;;;;;44.50;22.70;;;13.80;99.90;;;;;;5012981;28;20044;-80
2023/05/08 05:09:24;;;;;;;38.70;22.23;;;13.80;99.90;;;;;;5026149;28;20037;-77
2023/05/08 05:11:51;;;;;;;49.28;23.17;;;13.70;99.90;;;;;;5032789;28;20414;-78
2023/05/08 05:14:18;;;;;;;47.53;22.73;;;13.70;99.90;;;;;;5031652;28;20269;-79
2023/05/08 05:16:44;;;;;;;46.47;23.23;;;13.80;99.90;;;;;;5029476;28;20034;-79
2023/05/08 05:19:10;;;;;;;44.20;23.42;;;13.80;99.90;;;;;;5033783;28;20022;-79
2023/05/08 05:21:38;;;;;;;36.42;21.15;;;13.80;99.90;;;;;;5030091;28;20042;-79
2023/05/08 05:24:05;;;;;;;48.60;23.23;;;13.70;99.90;;;;;;5026842;28;20042;-78
2023/05/08 05:26:31;;;;;;;47.42;22.42;;;13.70;99.90;;;;;;5015826;28;20470;-78
2023/05/08 05:28:58;;;;;;;47.50;22.38;;;13.70;99.90;;;;;;5020877;28;20434;-80
2023/05/08 05:31:24;;;;;;;40.38;21.85;;;13.80;99.90;;;;;;5032038;28;20048;-77
2023/05/08 05:33:51;;;;;;;40.58;20.90;;;13.80;99.90;;;;;;5030399;28;20041;-78
2023/05/08 05:36:18;;;;;;;40.55;20.40;;;13.80;99.90;;;;;;5022608;28;20034;-79
2023/05/08 05:38:45;;;;;;;39.33;21.95;;;13.80;99.90;;;;;;5030770;28;20053;-78
2023/05/08 05:41:11;;;;;;;34.13;21.00;;;13.80;99.90;;;;;;5028770;28;20029;-78
2023/05/08 05:43:37;;;;;;;34.25;20.75;;;13.70;99.90;;;;;;5031329;28;20042;-78
2023/05/08 05:46:08;;;;;;;50.38;21.15;;;13.70;99.90;;;;;;5026180;28;20478;-78
2023/05/08 05:48:35;;;;;;;47.10;21.95;;;13.70;99.90;;;;;;5021351;28;20037;-78
2023/05/08 05:51:02;;;;;;;37.85;20.73;;;13.80;99.90;;;;;;5032090;28;20033;-79
2023/05/08 05:53:29;;;;;;;58.60;23.63;;;13.80;99.90;;;;;;5027137;28;20057;-78
2023/05/08 05:55:55;;;;;;;46.67;22.25;;;13.90;99.90;;;;;;5026336;28;20052;-79
2023/05/08 05:58:22;;;;;;;38.25;21.10;;;13.90;99.90;;;;;;5025613;28;20040;-78
2023/05/08 06:00:49;;;;;;;33.00;20.98;;;13.90;99.90;;;;;;5046722;28;20051;-78
2023/05/08 06:03:15;;;;;;;34.85;19.63;;;13.90;99.90;;;;;;5030618;28;20026;-78
2023/05/08 06:05:42;;;;;;;34.80;18.85;;;13.90;99.90;;;;;;5030591;28;20366;-78
2023/05/08 06:08:08;;;;;;;41.60;21.30;;;13.90;99.90;;;;;;5044236;28;20029;-78
2023/05/08 06:10:35;;;;;;;36.67;21.25;;;13.90;99.90;;;;;;5029592;28;20025;-78
2023/05/08 06:13:02;;;;;;;29.48;18.30;;;13.90;99.90;;;;;;5031857;28;20048;-78
2023/05/08 06:15:28;;;;;;;28.77;18.80;;;13.90;99.90;;;;;;5029445;28;20048;-78
2023/05/08 06:17:55;;;;;;;37.88;20.00;;;13.90;99.90;;;;;;5029360;28;20041;-78
2023/05/08 06:20:22;;;;;;;37.53;20.10;;;13.90;99.90;;;;;;5027487;28;20033;-78
2023/05/08 06:22:48;;;;;;;46.35;21.02;;;13.90;99.90;;;;;;5029106;28;20037;-79
2023/05/08 06:25:15;;;;;;;44.15;21.65;;;14.00;99.90;;;;;;5026782;28;20370;-78
2023/05/08 06:27:42;;;;;;;50.63;22.08;;;14.10;99.90;;;;;;5031033;28;20358;-78
2023/05/08 06:30:09;;;;;;;32.30;19.90;;;14.00;99.90;;;;;;5026269;28;20369;-78
2023/05/08 06:32:35;;;;;;;33.08;19.42;;;14.10;99.90;;;;;;5028436;28;20029;-76
2023/05/08 06:35:02;;;;;;;42.70;21.17;;;14.00;99.90;;;;;;5028178;28;20053;-81
2023/05/08 06:37:28;;;;;;;35.88;19.42;;;14.00;99.90;;;;;;5028297;28;20459;-76
2023/05/08 06:39:54;;;;;;;34.20;19.10;;;14.00;99.90;;;;;;5027703;28;20370;-76
2023/05/08 06:42:21;;;;;;;36.17;20.08;;;13.90;99.90;;;;;;5025633;28;20704;-77
2023/05/08 06:44:47;;;;;;;40.40;20.17;;;13.90;99.90;;;;;;5028110;28;20033;-77
2023/05/08 06:47:13;;;;;;;31.00;18.77;;;13.90;99.90;;;;;;5025961;28;20028;-75
2023/05/08 06:49:39;;;;;;;39.00;20.83;;;13.90;99.90;;;;;;5022873;28;20042;-76
2023/05/08 06:52:05;;;;;;;32.17;20.00;;;13.90;99.90;;;;;;5018838;28;20064;-80
2023/05/08 06:54:31;;;;;;;38.38;20.63;;;13.90;99.90;;;;;;5023901;28;20037;-77
2023/05/08 06:56:58;;;;;;;36.28;19.98;;;13.90;99.90;;;;;;5026062;28;20036;-76
2023/05/08 06:59:24;;;;;;;41.15;22.13;;;13.90;99.90;;;;;;5026685;28;20042;-77
2023/05/08 07:01:50;;;;;;;35.60;20.90;;;13.90;99.90;;;;;;5026747;28;20034;-78
2023/05/08 07:04:16;;;;;;;43.38;22.08;;;13.90;99.90;;;;;;5025708;28;20463;-77
2023/05/08 07:06:42;;;;;;;65.95;26.80;;;13.90;99.90;;;;;;5028086;28;20044;-77
2023/05/08 07:09:09;;;;;;;50.13;24.65;;;14.00;99.90;;;;;;5026643;28;20048;-78
2023/05/08 07:11:35;;;;;;;53.20;25.77;;;14.00;99.90;;;;;;5027844;28;20032;-77
2023/05/08 07:14:02;;;;;;;45.97;23.02;;;14.10;99.90;;;;;;5028643;28;20036;-77
2023/05/08 07:16:28;;;;;;;57.85;25.38;;;14.00;99.90;;;;;;5028873;28;20033;-78
2023/05/08 07:18:54;;;;;;;49.15;24.25;;;14.00;99.90;;;;;;5026405;28;20030;-77
2023/05/08 07:21:20;;;;;;;46.22;23.88;;;14.00;99.90;;;;;;5028825;28;20040;-77
2023/05/08 07:23:49;;;;;;;47.08;25.48;;;14.10;99.90;;;;;;5026594;28;20034;-77
2023/05/08 07:26:15;;;;;;;40.85;24.92;;;14.10;99.90;;;;;;5029616;28;20041;-77
2023/05/08 07:28:41;;;;;;;52.08;26.70;;;14.00;99.90;;;;;;5029369;28;20029;-77
2023/05/08 07:31:07;;;;;;;48.53;27.50;;;14.00;99.90;;;;;;5026734;28;20348;-77
2023/05/08 07:33:34;;;;;;;53.28;27.50;;;13.90;99.90;;;;;;5024258;28;20048;-76
2023/05/08 07:36:00;;;;;;;50.15;29.17;;;13.90;99.90;;;;;;5025343;28;20873;-77
2023/05/08 07:38:26;;;;;;;63.80;31.75;;;13.90;99.90;;;;;;5026299;28;20037;-77
2023/05/08 07:40:55;;;;;;;54.63;30.88;;;13.90;99.90;;;;;;5017215;28;20026;-77
2023/05/08 07:43:22;;;;;;;63.33;32.85;;;14.00;99.90;;;;;;5012797;28;20045;-77
2023/05/08 07:45:49;;;;;;;59.50;30.60;;;14.00;99.90;;;;;;5013286;28;20040;-77
2023/05/08 07:48:15;;;;;;;57.28;30.23;;;14.10;99.90;;;;;;5017909;28;20029;-76
2023/05/08 07:50:41;;;;;;;71.85;32.70;;;14.10;99.90;;;;;;5026667;28;20029;-77
2023/05/08 07:53:07;;;;;;;69.53;30.73;;;14.20;99.90;;;;;;5027152;28;20067;-81
2023/05/08 07:55:34;;;;;;;62.50;30.75;;;14.20;99.90;;;;;;5026985;28;20030;-77
2023/05/08 07:58:00;;;;;;;58.03;30.00;;;14.20;99.90;;;;;;5026503;28;20451;-77
2023/05/08 08:00:26;;;;;;;60.30;28.92;;;14.20;99.90;;;;;;5030465;28;20459;-77
2023/05/08 08:02:52;;;;;;;76.85;31.10;;;14.20;99.90;;;;;;5023320;28;20040;-77
2023/05/08 08:05:19;;;;;;;46.28;26.67;;;14.30;99.90;;;;;;5025689;28;20033;-76
2023/05/08 08:07:45;;;;;;;43.75;23.48;;;14.30;99.90;;;;;;5022730;28;20030;-77
2023/05/08 08:10:11;;;;;;;53.92;26.40;;;14.30;99.90;;;;;;5027448;28;20034;-78
2023/05/08 08:12:37;;;;;;;43.65;24.13;;;14.30;99.90;;;;;;5029266;28;20032;-77
2023/05/08 08:15:04;;;;;;;44.47;23.95;;;14.30;99.90;;;;;;5023278;28;20403;-77
2023/05/08 08:17:31;;;;;;;41.45;23.13;;;14.40;99.90;;;;;;5023336;28;20030;-77
2023/05/08 08:19:58;;;;;;;34.47;20.80;;;14.50;99.90;;;;;;5026121;28;20029;-77
2023/05/08 08:22:25;;;;;;;36.58;21.33;;;14.50;99.90;;;;;;5025549;28;20041;-77
2023/05/08 08:24:54;;;;;;;32.63;20.17;;;14.60;99.90;;;;;;5025687;28;20046;-77
2023/05/08 08:27:20;;;;;;;32.25;20.88;;;14.60;99.90;;;;;;5018206;28;20038;-77
2023/05/08 08:29:46;;;;;;;33.47;20.52;;;14.70;99.90;;;;;;5025441;28;20033;-77
2023/05/08 08:32:13;;;;;;;26.88;19.45;;;14.70;99.90;;;;;;5028828;28;20033;-77
2023/05/08 08:34:39;;;;;;;30.15;19.52;;;14.50;99.90;;;;;;5029134;28;20022;-77
2023/05/08 08:37:05;;;;;;;30.98;18.95;;;14.70;99.90;;;;;;5022926;28;20037;-80
2023/05/08 08:39:35;;;;;;;28.65;19.50;;;14.60;99.90;;;;;;5025605;28;20040;-77
2023/05/08 08:42:02;;;;;;;28.38;19.08;;;14.70;99.90;;;;;;5028986;28;20037;-77
2023/05/08 08:44:29;;;;;;;25.52;18.08;;;14.80;99.90;;;;;;5023999;28;20045;-77
2023/05/08 08:46:57;;;;;;;27.92;19.40;;;14.70;99.90;;;;;;5014852;28;20037;-77
2023/05/08 08:49:29;;;;;;;24.88;16.73;;;14.80;99.90;;;;;;5030136;28;20026;-76
2023/05/08 08:51:59;;;;;;;21.08;15.77;;;14.70;99.90;;;;;;5028239;28;20046;-76
2023/05/08 08:54:30;;;;;;;22.52;15.90;;;14.90;99.90;;;;;;5031085;28;20033;-77
2023/05/08 08:57:00;;;;;;;27.67;16.88;;;14.70;99.90;;;;;;5030262;28;20041;-75
2023/05/08 08:59:28;;;;;;;20.45;15.45;;;15.00;99.90;;;;;;5042422;28;20435;-75
2023/05/08 09:01:57;;;;;;;24.65;14.95;;;15.00;99.90;;;;;;5033369;28;20454;-75
2023/05/08 09:04:28;;;;;;;26.08;14.45;;;14.80;99.90;;;;;;5035149;28;20029;-75
2023/05/08 09:06:55;;;;;;;;;;;15.00;99.90;;;;;;5043291;28;20060;-75
2023/05/08 09:09:21;;;;;;;21.02;14.90;;;15.00;99.90;;;;;;5046029;28;19913;-77
2023/05/08 09:11:48;;;;;;;21.58;13.95;;;15.10;99.90;;;;;;5036035;28;20335;-76
2023/05/08 09:14:14;;;;;;;19.45;15.57;;;14.90;99.90;;;;;;5019744;28;20029;-75
2023/05/08 09:16:40;;;;;;;19.13;14.50;;;15.10;99.90;;;;;;5025844;28;20050;-75
2023/05/08 09:19:07;;;;;;;22.15;14.88;;;15.10;99.90;;;;;;5029871;28;20037;-77
2023/05/08 09:21:34;;;;;;;24.45;15.15;;;15.10;99.90;;;;;;5025657;28;20446;-76
2023/05/08 09:24:03;;;;;;;17.45;13.50;;;15.20;99.90;;;;;;5025958;28;20036;-75
2023/05/08 09:26:39;;;;;;;19.38;14.40;;;15.30;99.90;;;;;;5024251;28;20036;-76
2023/05/08 09:29:17;;;;;;;15.95;13.73;;;15.50;99.90;;;;;;5021297;28;20033;-75
2023/05/08 09:31:49;;;;;;;18.23;14.95;;;15.60;99.90;;;;;;5018865;28;20030;-76
2023/05/08 09:34:27;;;;;;;15.48;13.13;;;15.80;99.90;;;;;;5017150;28;20467;-76
2023/05/08 09:36:54;;;;;;;15.73;12.75;;;15.90;99.90;;;;;;5018969;28;20034;-76
2023/05/08 09:39:24;;;;;;;15.98;13.38;;;15.90;99.90;;;;;;5029347;28;20036;-75
2023/05/08 09:41:58;;;;;;;16.17;13.25;;;16.00;99.90;;;;;;5022789;28;20390;-76
2023/05/08 09:44:24;;;;;;;15.95;12.52;;;15.70;99.90;;;;;;5027325;28;20017;-75
2023/05/08 09:46:50;;;;;;;15.35;12.80;;;15.70;99.90;;;;;;5028322;28;20029;-75
2023/05/08 09:49:17;;;;;;;15.93;11.52;;;15.80;99.90;;;;;;5013755;28;20037;-75
2023/05/08 09:51:53;;;;;;;14.85;13.25;;;15.90;99.90;;;;;;5029236;28;20033;-75
2023/05/08 09:54:20;;;;;;;17.00;13.20;;;16.00;99.90;;;;;;5026570;28;20032;-75
2023/05/08 09:56:46;;;;;;;18.25;13.88;;;15.90;99.90;;;;;;5038490;28;20034;-75
2023/05/08 09:59:21;;;;;;;18.05;14.07;;;15.80;99.90;;;;;;5031299;28;20048;-76
2023/05/08 10:01:48;;;;;;;15.95;13.02;;;15.50;99.90;;;;;;5031580;28;20029;-74
2023/05/08 10:04:14;;;;;;;17.58;14.95;;;15.40;99.90;;;;;;5026233;28;20028;-76
2023/05/08 10:06:40;;;;;;;18.98;14.57;;;15.50;99.90;;;;;;5027229;28;20050;-76
2023/05/08 10:09:09;;;;;;;21.02;14.82;;;15.50;99.90;;;;;;5027619;28;20030;-76
2023/05/08 10:11:35;;;;;;;18.17;14.50;;;15.50;99.90;;;;;;5026801;28;20038;-75
2023/05/08 10:14:01;;;;;;;18.00;14.43;;;15.60;99.90;;;;;;5023098;28;20030;-75
2023/05/08 10:16:29;;;;;;;16.67;13.95;;;15.70;99.90;;;;;;5029115;28;20033;-75
2023/05/08 10:19:01;;;;;;;26.80;16.48;;;15.80;99.90;;;;;;5025358;28;20029;-75
2023/05/08 10:21:36;;;;;;;17.08;14.43;;;15.70;99.90;;;;;;5030785;28;20025;-75
2023/05/08 10:24:05;;;;;;;19.23;15.90;;;15.80;99.90;;;;;;5029623;28;20033;-75
2023/05/08 10:26:36;;;;;;;19.60;14.93;;;15.90;99.90;;;;;;5027332;28;20550;-76
2023/05/08 10:29:08;;;;;;;16.25;13.80;;;15.80;99.90;;;;;;5025034;28;20025;-75
2023/05/08 10:31:38;;;;;;;19.73;14.40;;;15.90;99.90;;;;;;5028211;28;20041;-76
2023/05/08 10:34:05;;;;;;;16.33;13.67;;;16.00;99.90;;;;;;5027807;28;20033;-74
2023/05/08 10:36:32;;;;;;;18.88;13.68;;;16.10;99.90;;;;;;5028347;28;20049;-73
2023/05/08 10:38:59;;;;;;;14.02;12.18;;;16.20;99.90;;;;;;5026082;28;20045;-74
2023/05/08 10:41:26;;;;;;;14.85;12.57;;;16.10;99.90;;;;;;5026022;28;20054;-74
2023/05/08 10:43:54;;;;;;;14.02;12.52;;;16.20;99.90;;;;;;5026428;28;20026;-74
2023/05/08 10:46:39;;;;;;;15.45;12.68;;;16.20;99.90;;;;;;5024758;28;20040;-72
2023/05/08 10:49:33;;;;;;;19.50;13.70;;;16.30;99.90;;;;;;5022950;28;20026;-79
2023/05/08 10:52:20;;;;;;;15.13;12.50;;;16.30;99.90;;;;;;5024632;28;20375;-75
2023/05/08 10:54:46;;;;;;;14.98;12.20;;;16.20;99.90;;;;;;5027019;28;20036;-75
2023/05/08 10:57:13;;;;;;;18.23;12.40;;;16.40;99.90;;;;;;5027925;28;20034;-76
2023/05/08 10:59:45;;;;;;;12.90;11.43;;;16.40;99.90;;;;;;5023799;28;20029;-75
2023/05/08 11:02:12;;;;;;;15.18;12.68;;;16.50;99.90;;;;;;5028435;28;20021;-76
2023/05/08 11:04:38;;;;;;;13.55;11.38;;;17.00;99.90;;;;;;5028741;28;20034;-75
2023/05/08 11:07:04;;;;;;;15.73;11.98;;;17.50;99.90;;;;;;5029421;28;20034;-75
2023/05/08 11:09:39;;;;;;;12.13;10.10;;;17.90;99.90;;;;;;5026077;28;20034;-75
2023/05/08 11:12:17;;;;;;;11.20;9.38;;;17.80;99.90;;;;;;5027911;28;20049;-75
2023/05/08 11:14:52;;;;;;;12.00;10.52;;;17.80;99.90;;;;;;5031135;28;20037;-75
2023/05/08 11:17:22;;;;;;;13.68;10.25;;;17.90;99.90;;;;;;5018567;28;20060;-75
2023/05/08 11:19:56;;;;;;;;;;;18.00;99.90;;;;;;5026813;28;20447;-76
2023/05/08 11:22:27;;;;;;;13.10;10.18;;;17.70;99.90;;;;;;5019924;28;19932;-76
2023/05/08 11:24:55;;;;;;;15.82;10.30;;;17.60;99.90;;;;;;5023346;28;20101;-75
2023/05/08 11:27:42;;;;;;;12.70;10.98;;;17.90;99.90;;;;;;5021955;28;20471;-75
2023/05/08 11:30:37;;;;;;;10.30;9.25;;;17.80;99.90;;;;;;5017871;28;20378;-75
2023/05/08 11:33:04;;;;;;;13.50;10.38;;;17.50;99.90;;;;;;5026892;28;20490;-75
2023/05/08 11:35:39;;;;;;;13.98;10.55;;;17.50;99.90;;;;;;5022001;28;20026;-75
2023/05/08 11:38:17;;;;;;;10.43;9.30;;;17.40;99.90;;;;;;5017731;28;20040;-75
2023/05/08 11:41:12;;;;;;;14.07;10.48;;;17.40;99.90;;;;;;5019477;28;20021;-77
2023/05/08 11:44:19;;;;;;;13.85;10.43;;;17.10;99.90;;;;;;5023047;28;20048;-76
2023/05/08 11:46:52;;;;;;;12.52;10.73;;;17.10;99.90;;;;;;4989967;28;20037;-76
2023/05/08 11:49:23;;;;;;;15.55;9.88;;;17.20;99.90;;;;;;4990642;28;20134;-75
2023/05/08 11:51:56;;;;;;;11.15;9.88;;;17.20;99.90;;;;;;4991051;28;20050;-77
2023/05/08 11:54:23;;;;;;;12.20;9.15;;;17.20;99.90;;;;;;4990629;28;20047;-76
2023/05/08 11:56:52;;;;;;;12.70;10.70;;;17.10;99.90;;;;;;4989708;28;20038;-77
2023/05/08 11:59:22;;;;;;;12.60;10.13;;;16.90;99.90;;;;;;4990417;28;20049;-76
2023/05/08 12:01:49;;;;;;;13.63;10.13;;;16.90;99.90;;;;;;4990616;28;20041;-76
2023/05/08 12:04:16;;;;;;;12.43;9.85;;;17.10;99.90;;;;;;4990682;28;20038;-77
2023/05/08 12:06:43;;;;;;;13.63;9.95;;;17.20;99.90;;;;;;4990075;28;20038;-76
2023/05/08 12:09:11;;;;;;;14.25;10.38;;;17.20;99.90;;;;;;4991266;28;20451;-77
2023/05/08 12:11:38;;;;;;;12.52;9.55;;;17.00;99.90;;;;;;4988356;28;20046;-75
2023/05/08 12:14:04;;;;;;;13.75;10.45;;;17.20;99.90;;;;;;4986598;28;20030;-76
2023/05/08 12:16:35;;;;;;;11.60;9.68;;;17.40;99.90;;;;;;4991448;28;20177;-75
2023/05/08 12:19:01;;;;;;;12.82;9.10;;;17.50;99.90;;;;;;5024996;28;20040;-75
2023/05/08 12:21:27;;;;;;;12.65;8.82;;;17.60;99.90;;;;;;5022011;28;20025;-76
2023/05/08 12:23:55;;;;;;;11.88;8.98;;;17.60;99.90;;;;;;5022052;28;20040;-75
2023/05/08 12:26:24;;;;;;;12.98;8.82;;;17.50;99.90;;;;;;5023690;28;20033;-76
2023/05/08 12:28:55;;;;;;;12.27;10.10;;;17.40;99.90;;;;;;5031721;28;20040;-76
2023/05/08 12:31:22;;;;;;;15.13;9.40;;;17.40;93.70;;;;;;5022327;28;20030;-75
2023/05/08 12:33:48;;;;;;;11.27;9.05;;;17.40;99.90;;;;;;5019591;28;20034;-76
2023/05/08 12:36:15;;;;;;;13.52;10.02;;;17.40;99.90;;;;;;5026198;28;20037;-76
2023/05/08 12:38:41;;;;;;;14.82;11.20;;;17.40;99.90;;;;;;5026009;28;20042;-76
2023/05/08 12:41:08;;;;;;;11.95;10.50;;;17.40;99.90;;;;;;5027279;28;20038;-76
2023/05/08 12:43:36;;;;;;;13.88;9.82;;;17.30;99.90;;;;;;5024042;28;20033;-76